sensor_id;sensor_type;location;lat;lon;timestamp;pressure;altitude;pressure_sealevel;temperature;humidity
13068;BME280;6600;51.362;6.686;2022-08-03T00:01:03;101099.56;;;21.66;95.13
13068;BME280;6600;51.362;6.686;2022-08-03T00:03:29;101103.66;;;21.64;94.99
13068;BME280;6600;51.362;6.686;2022-08-03T00:05:54;101105.00;;;21.66;95.46
13068;BME280;6600;51.362;6.686;2022-08-03T00:08:19;101100.13;;;21.63;95.11
13068;BME280;6600;51.362;6.686;2022-08-03T00:10:45;101103.97;;;21.57;95.37
13068;BME280;6600;51.362;6.686;2022-08-03T00:13:11;101102.91;;;21.53;95.96
13068;BME280;6600;51.362;6.686;2022-08-03T00:15:39;101090.09;;;21.49;95.77
13068;BME280;6600;51.362;6.686;2022-08-03T00:18:05;101089.25;;;21.48;96.09
13068;BME280;6600;51.362;6.686;2022-08-03T00:20:30;101096.91;;;21.46;96.00
13068;BME280;6600;51.362;6.686;2022-08-03T00:22:56;101089.56;;;21.42;96.22
13068;BME280;6600;51.362;6.686;2022-08-03T00:25:21;101096.41;;;21.39;96.53
13068;BME280;6600;51.362;6.686;2022-08-03T00:27:46;101095.88;;;21.37;96.81
13068;BME280;6600;51.362;6.686;2022-08-03T00:30:12;101092.06;;;21.33;97.34
13068;BME280;6600;51.362;6.686;2022-08-03T00:32:37;101091.81;;;21.30;96.97
13068;BME280;6600;51.362;6.686;2022-08-03T00:35:03;101088.78;;;21.31;97.00
13068;BME280;6600;51.362;6.686;2022-08-03T00:37:28;101091.50;;;21.31;97.48
13068;BME280;6600;51.362;6.686;2022-08-03T00:39:54;101087.72;;;21.22;97.47
13068;BME280;6600;51.362;6.686;2022-08-03T00:42:19;101090.44;;;21.22;97.54
13068;BME280;6600;51.362;6.686;2022-08-03T00:44:44;101085.56;;;21.19;97.88
13068;BME280;6600;51.362;6.686;2022-08-03T00:47:10;101086.69;;;21.13;98.53
13068;BME280;6600;51.362;6.686;2022-08-03T00:49:38;101085.03;;;21.12;99.32
13068;BME280;6600;51.362;6.686;2022-08-03T00:52:03;101082.84;;;21.09;99.03
13068;BME280;6600;51.362;6.686;2022-08-03T00:54:30;101074.09;;;21.07;99.81
13068;BME280;6600;51.362;6.686;2022-08-03T00:56:56;101077.38;;;21.04;99.54
13068;BME280;6600;51.362;6.686;2022-08-03T00:59:21;101080.13;;;20.99;100.00
13068;BME280;6600;51.362;6.686;2022-08-03T01:01:47;101083.41;;;20.91;100.00
13068;BME280;6600;51.362;6.686;2022-08-03T01:04:12;101082.31;;;20.87;100.00
13068;BME280;6600;51.362;6.686;2022-08-03T01:12:26;101088.31;;;20.74;100.00
13068;BME280;6600;51.362;6.686;2022-08-03T01:14:59;101087.25;;;20.59;100.00
13068;BME280;6600;51.362;6.686;2022-08-03T01:17:39;101090.50;;;20.56;100.00
13068;BME280;6600;51.362;6.686;2022-08-03T01:20:12;101087.78;;;20.56;100.00
13068;BME280;6600;51.362;6.686;2022-08-03T01:25:58;101094.34;;;20.60;100.00
13068;BME280;6600;51.362;6.686;2022-08-03T01:31:12;101084.25;;;20.61;100.00
13068;BME280;6600;51.362;6.686;2022-08-03T01:33:42;101094.34;;;20.60;100.00
13068;BME280;6600;51.362;6.686;2022-08-03T01:36:13;101084.00;;;20.57;100.00
13068;BME280;6600;51.362;6.686;2022-08-03T01:38:42;101079.09;;;20.54;100.00
13068;BME280;6600;51.362;6.686;2022-08-03T01:41:13;101073.66;;;20.54;100.00
13068;BME280;6600;51.362;6.686;2022-08-03T01:43:41;101073.38;;;20.51;100.00
13068;BME280;6600;51.362;6.686;2022-08-03T01:46:10;101080.97;;;20.49;100.00
13068;BME280;6600;51.362;6.686;2022-08-03T01:48:37;101074.72;;;20.48;100.00
13068;BME280;6600;51.362;6.686;2022-08-03T01:51:05;101074.72;;;20.48;100.00
13068;BME280;6600;51.362;6.686;2022-08-03T01:53:32;101078.53;;;20.47;100.00
13068;BME280;6600;51.362;6.686;2022-08-03T01:55:59;101080.16;;;20.48;100.00
13068;BME280;6600;51.362;6.686;2022-08-03T01:58:27;101075.53;;;20.49;100.00
13068;BME280;6600;51.362;6.686;2022-08-03T02:00:54;101060.56;;;20.46;100.00
13068;BME280;6600;51.362;6.686;2022-08-03T02:03:25;101058.09;;;20.45;100.00
13068;BME280;6600;51.362;6.686;2022-08-03T02:05:53;101070.38;;;20.42;100.00
13068;BME280;6600;51.362;6.686;2022-08-03T02:08:23;101066.28;;;20.40;100.00
13068;BME280;6600;51.362;6.686;2022-08-03T02:10:50;101063.81;;;20.38;100.00
13068;BME280;6600;51.362;6.686;2022-08-03T02:13:18;101057.28;;;20.34;100.00
13068;BME280;6600;51.362;6.686;2022-08-03T02:15:45;101064.91;;;20.32;100.00
13068;BME280;6600;51.362;6.686;2022-08-03T02:18:12;101065.41;;;20.24;100.00
13068;BME280;6600;51.362;6.686;2022-08-03T02:20:39;101067.59;;;20.22;100.00
13068;BME280;6600;51.362;6.686;2022-08-03T02:23:06;101065.97;;;20.16;100.00
13068;BME280;6600;51.362;6.686;2022-08-03T02:25:34;101070.31;;;20.12;100.00
13068;BME280;6600;51.362;6.686;2022-08-03T02:28:10;101070.84;;;20.09;100.00
13068;BME280;6600;51.362;6.686;2022-08-03T02:30:38;101075.19;;;20.05;100.00
13068;BME280;6600;51.362;6.686;2022-08-03T02:33:10;101072.44;;;20.00;100.00
13068;BME280;6600;51.362;6.686;2022-08-03T02:35:38;101072.19;;;19.96;100.00
13068;BME280;6600;51.362;6.686;2022-08-03T02:38:06;101074.09;;;19.96;100.00
13068;BME280;6600;51.362;6.686;2022-08-03T02:40:32;101070.00;;;19.93;100.00
13068;BME280;6600;51.362;6.686;2022-08-03T02:43:00;101064.00;;;19.96;100.00
13068;BME280;6600;51.362;6.686;2022-08-03T02:45:27;101066.72;;;19.96;100.00
13068;BME280;6600;51.362;6.686;2022-08-03T02:47:57;101064.00;;;19.96;100.00
13068;BME280;6600;51.362;6.686;2022-08-03T02:50:24;101061.28;;;19.96;100.00
13068;BME280;6600;51.362;6.686;2022-08-03T02:52:52;101063.47;;;19.94;100.00
13068;BME280;6600;51.362;6.686;2022-08-03T02:55:19;101071.88;;;19.93;100.00
13068;BME280;6600;51.362;6.686;2022-08-03T02:57:46;101065.66;;;19.92;100.00
13068;BME280;6600;51.362;6.686;2022-08-03T03:00:12;101066.44;;;19.93;100.00
13068;BME280;6600;51.362;6.686;2022-08-03T03:02:39;101064.31;;;19.95;100.00
13068;BME280;6600;51.362;6.686;2022-08-03T03:05:06;101069.16;;;19.93;100.00
13068;BME280;6600;51.362;6.686;2022-08-03T03:07:33;101065.91;;;19.91;100.00
13068;BME280;6600;51.362;6.686;2022-08-03T03:09:59;101063.19;;;19.86;100.00
13068;BME280;6600;51.362;6.686;2022-08-03T03:12:26;101068.91;;;19.84;100.00
13068;BME280;6600;51.362;6.686;2022-08-03T03:14:52;101064.53;;;19.83;100.00
13068;BME280;6600;51.362;6.686;2022-08-03T03:17:18;101059.91;;;19.79;100.00
13068;BME280;6600;51.362;6.686;2022-08-03T03:19:45;101058.53;;;19.76;100.00
13068;BME280;6600;51.362;6.686;2022-08-03T03:22:11;101059.88;;;19.74;100.00
13068;BME280;6600;51.362;6.686;2022-08-03T03:24:40;101064.50;;;19.73;100.00
13068;BME280;6600;51.362;6.686;2022-08-03T03:27:06;101057.16;;;19.69;100.00
13068;BME280;6600;51.362;6.686;2022-08-03T03:29:32;101063.69;;;19.67;100.00
13068;BME280;6600;51.362;6.686;2022-08-03T03:31:59;101058.78;;;19.64;100.00
13068;BME280;6600;51.362;6.686;2022-08-03T03:34:25;101059.59;;;19.65;100.00
13068;BME280;6600;51.362;6.686;2022-08-03T03:36:52;101061.47;;;19.59;100.00
13068;BME280;6600;51.362;6.686;2022-08-03T03:39:18;101057.69;;;19.60;100.00
13068;BME280;6600;51.362;6.686;2022-08-03T03:41:43;101050.59;;;19.59;100.00
13068;BME280;6600;51.362;6.686;2022-08-03T03:44:09;101062.28;;;19.60;100.00
13068;BME280;6600;51.362;6.686;2022-08-03T03:46:34;101055.50;;;19.62;100.00
13068;BME280;6600;51.362;6.686;2022-08-03T03:49:00;101062.03;;;19.61;100.00
13068;BME280;6600;51.362;6.686;2022-08-03T03:51:25;101060.94;;;19.62;100.00
13068;BME280;6600;51.362;6.686;2022-08-03T03:53:57;101064.75;;;19.61;100.00
13068;BME280;6600;51.362;6.686;2022-08-03T03:56:23;101068.03;;;19.63;100.00
13068;BME280;6600;51.362;6.686;2022-08-03T03:58:49;101070.19;;;19.61;100.00
13068;BME280;6600;51.362;6.686;2022-08-03T04:01:14;101061.22;;;19.66;100.00
13068;BME280;6600;51.362;6.686;2022-08-03T04:03:40;101071.84;;;19.67;100.00
13068;BME280;6600;51.362;6.686;2022-08-03T04:06:05;101064.22;;;19.64;100.00
13068;BME280;6600;51.362;6.686;2022-08-03T04:08:49;101066.66;;;19.61;100.00
13068;BME280;6600;51.362;6.686;2022-08-03T04:11:37;101069.91;;;19.58;100.00
13068;BME280;6600;51.362;6.686;2022-08-03T04:14:45;101068.03;;;19.63;100.00
13068;BME280;6600;51.362;6.686;2022-08-03T04:17:00;101067.97;;;19.58;100.00
13068;BME280;6600;51.362;6.686;2022-08-03T04:19:35;101069.63;;;19.59;100.00
13068;BME280;6600;51.362;6.686;2022-08-03T04:22:06;101062.25;;;19.55;100.00
13068;BME280;6600;51.362;6.686;2022-08-03T04:24:39;101061.47;;;19.59;100.00
13068;BME280;6600;51.362;6.686;2022-08-03T04:27:07;101069.91;;;19.63;100.00
13068;BME280;6600;51.362;6.686;2022-08-03T04:29:34;101073.75;;;19.67;100.00
13068;BME280;6600;51.362;6.686;2022-08-03T04:32:02;101077.81;;;19.70;100.00
13068;BME280;6600;51.362;6.686;2022-08-03T04:34:29;101070.22;;;19.72;100.00
13068;BME280;6600;51.362;6.686;2022-08-03T04:36:58;101069.69;;;19.75;100.00
13068;BME280;6600;51.362;6.686;2022-08-03T04:39:26;101076.22;;;19.79;100.00
13068;BME280;6600;51.362;6.686;2022-08-03T04:41:55;101076.22;;;19.84;100.00
13068;BME280;6600;51.362;6.686;2022-08-03T04:44:23;101069.44;;;19.86;100.00
13068;BME280;6600;51.362;6.686;2022-08-03T04:46:50;101069.47;;;19.91;100.00
13068;BME280;6600;51.362;6.686;2022-08-03T04:49:17;101080.06;;;19.98;100.00
13068;BME280;6600;51.362;6.686;2022-08-03T04:51:44;101080.63;;;20.05;100.00
13068;BME280;6600;51.362;6.686;2022-08-03T04:54:14;101086.09;;;20.15;100.00
13068;BME280;6600;51.362;6.686;2022-08-03T04:56:41;101077.41;;;20.23;100.00
13068;BME280;6600;51.362;6.686;2022-08-03T04:59:07;101079.59;;;20.31;100.00
13068;BME280;6600;51.362;6.686;2022-08-03T05:01:33;101082.06;;;20.38;100.00
13068;BME280;6600;51.362;6.686;2022-08-03T05:03:58;101080.16;;;20.43;100.00
13068;BME280;6600;51.362;6.686;2022-08-03T05:06:24;101086.41;;;20.59;100.00
13068;BME280;6600;51.362;6.686;2022-08-03T05:08:50;101092.13;;;20.73;100.00
13068;BME280;6600;51.362;6.686;2022-08-03T05:11:15;101081.47;;;21.01;100.00
13068;BME280;6600;51.362;6.686;2022-08-03T05:13:41;101083.38;;;21.21;100.00
13068;BME280;6600;51.362;6.686;2022-08-03T05:16:07;101087.66;;;21.47;100.00
13068;BME280;6600;51.362;6.686;2022-08-03T05:18:32;101094.16;;;21.61;100.00
13068;BME280;6600;51.362;6.686;2022-08-03T05:20:57;101095.66;;;21.83;100.00
13068;BME280;6600;51.362;6.686;2022-08-03T05:23:23;101093.19;;;21.91;100.00
13068;BME280;6600;51.362;6.686;2022-08-03T05:25:48;101092.06;;;21.97;100.00
13068;BME280;6600;51.362;6.686;2022-08-03T05:28:14;101095.56;;;22.08;100.00
13068;BME280;6600;51.362;6.686;2022-08-03T05:30:39;101099.84;;;22.19;99.91
13068;BME280;6600;51.362;6.686;2022-08-03T05:33:05;101102.00;;;22.27;99.38
13068;BME280;6600;51.362;6.686;2022-08-03T05:35:31;101101.38;;;22.35;99.65
13068;BME280;6600;51.362;6.686;2022-08-03T05:37:59;101108.16;;;22.38;98.77
13068;BME280;6600;51.362;6.686;2022-08-03T05:40:25;101100.13;;;22.56;98.54
13068;BME280;6600;51.362;6.686;2022-08-03T05:42:50;101096.97;;;22.78;96.92
13068;BME280;6600;51.362;6.686;2022-08-03T05:45:15;101100.34;;;22.94;96.64
13068;BME280;6600;51.362;6.686;2022-08-03T05:47:44;101102.56;;;22.92;95.76
13068;BME280;6600;51.362;6.686;2022-08-03T05:50:11;101100.81;;;23.01;95.70
13068;BME280;6600;51.362;6.686;2022-08-03T05:52:37;101099.44;;;23.03;95.60
13068;BME280;6600;51.362;6.686;2022-08-03T05:55:05;101095.25;;;23.11;95.06
13068;BME280;6600;51.362;6.686;2022-08-03T05:57:31;101097.38;;;23.19;95.01
13068;BME280;6600;51.362;6.686;2022-08-03T05:59:57;101099.41;;;23.32;95.32
13068;BME280;6600;51.362;6.686;2022-08-03T06:02:22;101098.22;;;23.43;94.78
13068;BME280;6600;51.362;6.686;2022-08-03T06:04:47;101098.09;;;23.53;93.33
13068;BME280;6600;51.362;6.686;2022-08-03T06:07:13;101096.78;;;23.70;92.54
13068;BME280;6600;51.362;6.686;2022-08-03T06:09:38;101090.72;;;23.73;92.06
13068;BME280;6600;51.362;6.686;2022-08-03T06:12:05;101101.47;;;23.88;91.31
13068;BME280;6600;51.362;6.686;2022-08-03T06:14:31;101103.47;;;24.01;90.51
13068;BME280;6600;51.362;6.686;2022-08-03T06:16:56;101102.28;;;24.07;89.77
13068;BME280;6600;51.362;6.686;2022-08-03T06:19:21;101108.22;;;24.14;89.94
13068;BME280;6600;51.362;6.686;2022-08-03T06:21:48;101112.78;;;24.24;89.76
13068;BME280;6600;51.362;6.686;2022-08-03T06:24:13;101104.03;;;24.22;88.75
13068;BME280;6600;51.362;6.686;2022-08-03T06:26:39;101104.41;;;24.34;87.53
13068;BME280;6600;51.362;6.686;2022-08-03T06:29:04;101104.06;;;24.54;86.94
13068;BME280;6600;51.362;6.686;2022-08-03T06:31:30;101108.81;;;24.48;86.02
13068;BME280;6600;51.362;6.686;2022-08-03T06:33:55;101105.47;;;24.51;85.99
13068;BME280;6600;51.362;6.686;2022-08-03T06:36:20;101105.22;;;24.67;86.06
13068;BME280;6600;51.362;6.686;2022-08-03T06:38:46;101104.44;;;24.80;85.50
13068;BME280;6600;51.362;6.686;2022-08-03T06:41:11;101109.88;;;24.85;84.49
13068;BME280;6600;51.362;6.686;2022-08-03T06:43:37;101109.38;;;24.96;83.71
13068;BME280;6600;51.362;6.686;2022-08-03T06:46:03;101115.00;;;25.05;83.70
13068;BME280;6600;51.362;6.686;2022-08-03T06:48:32;101114.31;;;25.13;83.37
13068;BME280;6600;51.362;6.686;2022-08-03T06:50:57;101111.88;;;25.25;82.56
13068;BME280;6600;51.362;6.686;2022-08-03T06:53:23;101120.84;;;25.44;82.26
13068;BME280;6600;51.362;6.686;2022-08-03T06:55:49;101111.66;;;25.49;81.45
13068;BME280;6600;51.362;6.686;2022-08-03T06:58:14;101120.53;;;25.59;80.57
13068;BME280;6600;51.362;6.686;2022-08-03T07:00:40;101111.06;;;25.66;80.94
13068;BME280;6600;51.362;6.686;2022-08-03T07:03:05;101117.69;;;25.78;80.22
13068;BME280;6600;51.362;6.686;2022-08-03T07:05:31;101108.22;;;25.71;81.18
13068;BME280;6600;51.362;6.686;2022-08-03T07:07:59;101115.16;;;25.68;81.46
13068;BME280;6600;51.362;6.686;2022-08-03T07:10:26;101112.41;;;25.82;80.99
13068;BME280;6600;51.362;6.686;2022-08-03T07:12:51;101124.88;;;25.88;80.40
13068;BME280;6600;51.362;6.686;2022-08-03T07:15:17;101119.56;;;26.05;81.43
13068;BME280;6600;51.362;6.686;2022-08-03T07:17:42;101113.44;;;26.22;80.61
13068;BME280;6600;51.362;6.686;2022-08-03T07:20:08;101124.13;;;26.45;79.70
13068;BME280;6600;51.362;6.686;2022-08-03T07:22:34;101125.13;;;26.49;77.71
13068;BME280;6600;51.362;6.686;2022-08-03T07:24:59;101128.75;;;26.58;77.21
13068;BME280;6600;51.362;6.686;2022-08-03T07:27:25;101128.50;;;26.69;77.03
13068;BME280;6600;51.362;6.686;2022-08-03T07:29:52;101131.75;;;26.71;76.02
13068;BME280;6600;51.362;6.686;2022-08-03T07:32:17;101138.16;;;26.57;76.58
13068;BME280;6600;51.362;6.686;2022-08-03T07:34:43;101134.38;;;26.76;76.88
13068;BME280;6600;51.362;6.686;2022-08-03T07:37:08;101129.88;;;26.80;77.15
13068;BME280;6600;51.362;6.686;2022-08-03T07:39:34;101131.91;;;26.88;75.78
13068;BME280;6600;51.362;6.686;2022-08-03T07:41:59;101133.50;;;27.11;76.75
13068;BME280;6600;51.362;6.686;2022-08-03T07:44:24;101125.59;;;27.18;75.41
13068;BME280;6600;51.362;6.686;2022-08-03T07:46:50;101127.59;;;27.26;74.84
13068;BME280;6600;51.362;6.686;2022-08-03T07:49:15;101124.19;;;27.29;74.56
13068;BME280;6600;51.362;6.686;2022-08-03T07:51:41;101124.59;;;27.45;74.92
13068;BME280;6600;51.362;6.686;2022-08-03T07:54:06;101120.59;;;27.59;74.62
13068;BME280;6600;51.362;6.686;2022-08-03T07:56:34;101123.88;;;27.62;74.92
13068;BME280;6600;51.362;6.686;2022-08-03T07:59:00;101120.00;;;27.71;73.56
13068;BME280;6600;51.362;6.686;2022-08-03T08:01:27;101123.91;;;27.79;73.60
13068;BME280;6600;51.362;6.686;2022-08-03T08:03:52;101120.03;;;27.88;73.00
13068;BME280;6600;51.362;6.686;2022-08-03T08:06:18;101120.34;;;27.87;72.32
13068;BME280;6600;51.362;6.686;2022-08-03T08:08:43;101117.78;;;27.99;72.80
13068;BME280;6600;51.362;6.686;2022-08-03T08:11:09;101118.66;;;28.17;72.10
13068;BME280;6600;51.362;6.686;2022-08-03T08:13:34;101121.56;;;28.20;72.32
13068;BME280;6600;51.362;6.686;2022-08-03T08:16:02;101117.97;;;28.28;71.37
13068;BME280;6600;51.362;6.686;2022-08-03T08:18:27;101119.75;;;28.07;71.92
13068;BME280;6600;51.362;6.686;2022-08-03T08:20:54;101124.00;;;28.13;72.04
13068;BME280;6600;51.362;6.686;2022-08-03T08:23:19;101118.50;;;28.30;72.69
13068;BME280;6600;51.362;6.686;2022-08-03T08:25:49;101123.66;;;28.40;71.25
13068;BME280;6600;51.362;6.686;2022-08-03T08:28:19;101121.06;;;28.52;70.79
13068;BME280;6600;51.362;6.686;2022-08-03T08:30:45;101121.38;;;28.59;70.77
13068;BME280;6600;51.362;6.686;2022-08-03T08:33:10;101125.56;;;28.83;70.69
13068;BME280;6600;51.362;6.686;2022-08-03T08:35:36;101119.69;;;29.01;69.38
13068;BME280;6600;51.362;6.686;2022-08-03T08:38:01;101125.03;;;29.06;68.86
13068;BME280;6600;51.362;6.686;2022-08-03T08:40:27;101115.63;;;29.07;69.04
13068;BME280;6600;51.362;6.686;2022-08-03T08:42:53;101128.28;;;29.08;67.35
13068;BME280;6600;51.362;6.686;2022-08-03T08:45:18;101118.00;;;29.18;67.73
13068;BME280;6600;51.362;6.686;2022-08-03T08:47:45;101127.50;;;28.91;67.00
13068;BME280;6600;51.362;6.686;2022-08-03T08:50:12;101124.03;;;29.11;68.53
13068;BME280;6600;51.362;6.686;2022-08-03T08:52:42;101122.22;;;29.32;67.93
13068;BME280;6600;51.362;6.686;2022-08-03T08:55:13;101112.72;;;29.50;67.25
13068;BME280;6600;51.362;6.686;2022-08-03T08:57:47;101111.66;;;29.64;67.23
13068;BME280;6600;51.362;6.686;2022-08-03T09:00:13;101113.53;;;29.51;65.41
13068;BME280;6600;51.362;6.686;2022-08-03T09:02:40;101108.88;;;29.34;66.16
13068;BME280;6600;51.362;6.686;2022-08-03T09:05:13;101119.56;;;29.74;65.73
13068;BME280;6600;51.362;6.686;2022-08-03T09:07:39;101106.34;;;29.88;64.53
13068;BME280;6600;51.362;6.686;2022-08-03T09:10:06;101108.25;;;29.96;64.94
13068;BME280;6600;51.362;6.686;2022-08-03T09:12:43;101110.13;;;30.04;63.72
13068;BME280;6600;51.362;6.686;2022-08-03T09:15:28;101120.16;;;30.29;62.73
13068;BME280;6600;51.362;6.686;2022-08-03T09:18:02;101122.94;;;30.29;62.54
13068;BME280;6600;51.362;6.686;2022-08-03T09:20:31;101111.06;;;30.49;61.38
13068;BME280;6600;51.362;6.686;2022-08-03T09:23:07;101122.66;;;30.64;60.80
13068;BME280;6600;51.362;6.686;2022-08-03T09:25:36;101109.28;;;30.66;60.11
13068;BME280;6600;51.362;6.686;2022-08-03T09:30:31;101118.06;;;30.68;59.81
13068;BME280;6600;51.362;6.686;2022-08-03T09:33:02;101123.50;;;30.43;58.53
13068;BME280;6600;51.362;6.686;2022-08-03T09:35:27;101120.06;;;30.38;59.30
13068;BME280;6600;51.362;6.686;2022-08-03T09:38:14;101117.00;;;30.60;60.50
13068;BME280;6600;51.362;6.686;2022-08-03T09:40:40;101113.94;;;30.86;59.56
13068;BME280;6600;51.362;6.686;2022-08-03T09:43:07;101109.56;;;30.85;58.23
13068;BME280;6600;51.362;6.686;2022-08-03T09:45:34;101109.91;;;31.16;58.23
13068;BME280;6600;51.362;6.686;2022-08-03T09:48:38;101113.38;;;31.37;57.72
13068;BME280;6600;51.362;6.686;2022-08-03T09:51:04;101108.28;;;31.15;56.19
13068;BME280;6600;51.362;6.686;2022-08-03T09:53:29;101112.09;;;30.78;56.16
13068;BME280;6600;51.362;6.686;2022-08-03T09:55:57;101110.69;;;31.04;57.39
13068;BME280;6600;51.362;6.686;2022-08-03T09:58:24;101104.56;;;31.11;56.88
13068;BME280;6600;51.362;6.686;2022-08-03T10:00:53;101112.53;;;31.13;56.37
13068;BME280;6600;51.362;6.686;2022-08-03T10:03:19;101105.72;;;31.10;57.35
13068;BME280;6600;51.362;6.686;2022-08-03T10:05:44;101101.81;;;31.35;56.11
13068;BME280;6600;51.362;6.686;2022-08-03T10:08:15;101102.50;;;31.44;55.78
13068;BME280;6600;51.362;6.686;2022-08-03T10:10:46;101102.28;;;31.49;56.22
13068;BME280;6600;51.362;6.686;2022-08-03T10:13:13;101105.75;;;31.46;54.22
13068;BME280;6600;51.362;6.686;2022-08-03T10:15:39;101097.66;;;31.41;54.36
13068;BME280;6600;51.362;6.686;2022-08-03T10:18:05;101092.50;;;31.64;55.12
13068;BME280;6600;51.362;6.686;2022-08-03T10:20:30;101098.13;;;31.80;53.71
13068;BME280;6600;51.362;6.686;2022-08-03T10:22:57;101087.28;;;31.63;52.50
13068;BME280;6600;51.362;6.686;2022-08-03T10:25:24;101088.63;;;32.05;53.01
13068;BME280;6600;51.362;6.686;2022-08-03T10:27:55;101085.59;;;32.10;52.18
13068;BME280;6600;51.362;6.686;2022-08-03T10:30:23;101088.75;;;32.09;51.45
13068;BME280;6600;51.362;6.686;2022-08-03T10:32:54;101077.34;;;32.26;51.53
13068;BME280;6600;51.362;6.686;2022-08-03T10:35:22;101078.81;;;32.35;52.15
13068;BME280;6600;51.362;6.686;2022-08-03T10:37:57;101086.22;;;32.31;51.34
13068;BME280;6600;51.362;6.686;2022-08-03T10:40:26;101081.50;;;32.32;50.85
13068;BME280;6600;51.362;6.686;2022-08-03T10:42:54;101076.13;;;32.39;51.93
13068;BME280;6600;51.362;6.686;2022-08-03T10:45:23;101078.38;;;32.33;51.47
13068;BME280;6600;51.362;6.686;2022-08-03T10:47:50;101076.16;;;31.99;51.85
13068;BME280;6600;51.362;6.686;2022-08-03T10:50:18;101081.38;;;32.28;51.41
13068;BME280;6600;51.362;6.686;2022-08-03T10:52:53;101070.78;;;32.18;51.05
13068;BME280;6600;51.362;6.686;2022-08-03T11:01:00;101070.88;;;32.77;50.00
13068;BME280;6600;51.362;6.686;2022-08-03T11:03:25;101057.34;;;32.76;49.32
13068;BME280;6600;51.362;6.686;2022-08-03T11:05:51;101064.34;;;32.70;49.17
13068;BME280;6600;51.362;6.686;2022-08-03T11:08:19;101049.94;;;32.80;50.50
13068;BME280;6600;51.362;6.686;2022-08-03T11:10:45;101054.59;;;32.91;49.96
13068;BME280;6600;51.362;6.686;2022-08-03T11:13:15;101054.06;;;33.01;48.94
13068;BME280;6600;51.362;6.686;2022-08-03T11:15:43;101046.97;;;32.73;48.12
13068;BME280;6600;51.362;6.686;2022-08-03T11:18:11;101052.72;;;32.95;49.03
13068;BME280;6600;51.362;6.686;2022-08-03T11:20:51;101050.66;;;33.08;47.69
13068;BME280;6600;51.362;6.686;2022-08-03T11:23:38;101049.59;;;33.28;47.23
13068;BME280;6600;51.362;6.686;2022-08-03T11:26:11;101052.81;;;33.30;48.00
13068;BME280;6600;51.362;6.686;2022-08-03T11:28:37;101054.50;;;33.03;47.22
13068;BME280;6600;51.362;6.686;2022-08-03T11:34:07;101047.09;;;32.92;46.66
13068;BME280;6600;51.362;6.686;2022-08-03T11:39:42;101042.06;;;32.82;47.55
13068;BME280;6600;51.362;6.686;2022-08-03T11:44:51;101047.06;;;32.48;47.89
13068;BME280;6600;51.362;6.686;2022-08-03T11:47:19;101032.19;;;32.25;49.53
13068;BME280;6600;51.362;6.686;2022-08-03T11:49:46;101035.97;;;32.76;48.13
13068;BME280;6600;51.362;6.686;2022-08-03T11:52:12;101036.69;;;32.89;47.76
13068;BME280;6600;51.362;6.686;2022-08-03T11:54:38;101032.84;;;33.09;46.90
13068;BME280;6600;51.362;6.686;2022-08-03T11:57:04;101037.16;;;33.22;46.98
13068;BME280;6600;51.362;6.686;2022-08-03T11:59:33;101035.78;;;33.00;45.98
13068;BME280;6600;51.362;6.686;2022-08-03T12:02:09;101035.50;;;32.90;47.61
13068;BME280;6600;51.362;6.686;2022-08-03T12:05:05;101033.19;;;32.61;47.30
13068;BME280;6600;51.362;6.686;2022-08-03T12:07:30;101035.00;;;32.41;46.62
13068;BME280;6600;51.362;6.686;2022-08-03T12:10:13;101035.06;;;32.44;47.37
13068;BME280;6600;51.362;6.686;2022-08-03T12:12:39;101028.56;;;32.52;47.17
13068;BME280;6600;51.362;6.686;2022-08-03T12:15:06;101027.41;;;32.53;46.43
13068;BME280;6600;51.362;6.686;2022-08-03T12:17:32;101024.56;;;32.66;46.74
13068;BME280;6600;51.362;6.686;2022-08-03T12:19:59;101025.16;;;32.43;46.08
13068;BME280;6600;51.362;6.686;2022-08-03T12:22:51;101024.44;;;32.46;46.87
13068;BME280;6600;51.362;6.686;2022-08-03T12:25:24;101022.28;;;32.68;47.05
13068;BME280;6600;51.362;6.686;2022-08-03T12:27:50;101019.03;;;32.66;46.09
13068;BME280;6600;51.362;6.686;2022-08-03T12:30:17;101021.03;;;32.81;43.79
13068;BME280;6600;51.362;6.686;2022-08-03T12:32:43;101026.03;;;32.91;44.06
13068;BME280;6600;51.362;6.686;2022-08-03T12:35:09;101023.69;;;33.24;44.39
13068;BME280;6600;51.362;6.686;2022-08-03T12:37:47;101012.59;;;33.24;45.71
13068;BME280;6600;51.362;6.686;2022-08-03T12:40:12;101013.09;;;33.45;45.25
13068;BME280;6600;51.362;6.686;2022-08-03T12:42:40;101017.91;;;33.48;44.23
13068;BME280;6600;51.362;6.686;2022-08-03T12:45:18;101017.53;;;33.66;45.22
13068;BME280;6600;51.362;6.686;2022-08-03T12:47:54;101016.66;;;33.62;44.25
13068;BME280;6600;51.362;6.686;2022-08-03T12:50:31;101019.44;;;33.62;43.52
13068;BME280;6600;51.362;6.686;2022-08-03T12:53:01;101015.47;;;33.63;44.40
13068;BME280;6600;51.362;6.686;2022-08-03T12:55:29;101012.50;;;33.56;44.32
13068;BME280;6600;51.362;6.686;2022-08-03T12:58:05;101015.13;;;33.64;44.03
13068;BME280;6600;51.362;6.686;2022-08-03T13:00:31;101009.94;;;33.82;42.69
13068;BME280;6600;51.362;6.686;2022-08-03T13:03:02;101011.97;;;33.66;43.63
13068;BME280;6600;51.362;6.686;2022-08-03T13:05:29;101008.56;;;33.91;43.17
13068;BME280;6600;51.362;6.686;2022-08-03T13:07:54;100996.03;;;34.01;43.45
13068;BME280;6600;51.362;6.686;2022-08-03T13:10:32;101006.81;;;34.03;42.09
13068;BME280;6600;51.362;6.686;2022-08-03T13:12:58;101010.41;;;34.22;42.70
13068;BME280;6600;51.362;6.686;2022-08-03T13:15:29;100996.81;;;34.40;42.19
13068;BME280;6600;51.362;6.686;2022-08-03T13:17:55;101011.69;;;34.28;41.31
13068;BME280;6600;51.362;6.686;2022-08-03T13:20:21;100997.50;;;34.14;41.25
13068;BME280;6600;51.362;6.686;2022-08-03T13:22:47;101009.31;;;34.27;42.62
13068;BME280;6600;51.362;6.686;2022-08-03T13:25:13;100999.47;;;34.14;42.06
13068;BME280;6600;51.362;6.686;2022-08-03T13:27:39;100994.00;;;34.17;42.45
13068;BME280;6600;51.362;6.686;2022-08-03T13:30:05;100996.63;;;34.29;40.85